Terminal Aerodrome Forecast
Issued by NWS

Home | Current Version | Previous Version | Text Only | Print | Product List | Glossary Off
Versions: 1 2 3 4 5 6 7 8 9 10 11 12 13 14 15 16

806
FTUS43 KBIS 161132
TAFMOT
TAF
KMOT 161132Z 1612/1712 16008KT P6SM OVC150
     FM161700 21013KT P6SM SCT150
     FM170900 23011KT P6SM SKC=

USA.gov is the U.S. government's official web portal to all federal, state and local government web resources and services.